createdAt,value
2022-11-15T00:02:16.699Z,5.72
2022-11-15T00:05:38.064Z,5.78
2022-11-15T00:08:59.827Z,5.32
2022-11-15T00:12:20.268Z,5.45
2022-11-15T00:15:41.255Z,5.15
2022-11-15T00:19:02.886Z,5.78
2022-11-15T00:22:24.295Z,5.50
2022-11-15T00:25:45.243Z,5.88
2022-11-15T00:29:05.999Z,5.57
2022-11-15T00:32:26.919Z,5.70
2022-11-15T00:35:47.886Z,5.40
2022-11-15T00:39:08.712Z,5.75
2022-11-15T00:42:29.341Z,5.25
2022-11-15T00:45:50.737Z,5.50
2022-11-15T00:49:11.937Z,5.70
2022-11-15T00:52:33.087Z,5.47
2022-11-15T00:55:54.216Z,5.95
2022-11-15T00:59:15.071Z,5.85
2022-11-15T01:02:35.809Z,5.65
2022-11-15T01:05:56.809Z,5.88
2022-11-15T01:09:17.642Z,6.30
2022-11-15T01:12:38.727Z,5.85
2022-11-15T01:15:59.907Z,5.70
2022-11-15T01:19:20.801Z,6.00
2022-11-15T01:22:41.770Z,5.60
2022-11-15T01:26:02.656Z,5.65
2022-11-15T01:29:23.728Z,6.00
2022-11-15T01:32:45.031Z,6.20
2022-11-15T01:36:05.995Z,5.90
2022-11-15T01:39:27.062Z,5.70
2022-11-15T01:42:47.944Z,6.30
2022-11-15T01:46:09.972Z,6.05
2022-11-15T01:49:31.206Z,5.93
2022-11-15T01:52:52.166Z,5.95
2022-11-15T01:56:12.840Z,5.85
2022-11-15T01:59:33.870Z,6.30
2022-11-15T02:02:54.615Z,5.65
2022-11-15T02:06:15.659Z,6.18
2022-11-15T02:09:36.337Z,5.70
2022-11-15T02:12:57.097Z,5.63
2022-11-15T02:16:17.911Z,5.50
2022-11-15T02:19:38.509Z,5.63
2022-11-15T02:22:59.036Z,5.47
2022-11-15T02:30:04.168Z,5.50
2022-11-15T02:33:25.246Z,5.38
2022-11-15T02:36:46.062Z,5.70
2022-11-15T02:40:07.043Z,5.00
2022-11-15T02:43:28.359Z,5.70
2022-11-15T02:46:50.117Z,4.90
2022-11-15T02:50:11.267Z,5.25
2022-11-15T02:53:33.163Z,5.30
2022-11-15T02:56:54.167Z,5.55
2022-11-15T03:00:14.770Z,4.80
2022-11-15T03:03:36.416Z,5.00
2022-11-15T03:06:57.579Z,5.13
2022-11-15T03:10:18.852Z,5.10
2022-11-15T03:13:40.037Z,4.90
2022-11-15T03:17:00.804Z,5.38
2022-11-15T03:20:21.235Z,5.18
2022-11-15T03:23:41.667Z,4.72
2022-11-15T03:27:02.794Z,5.18
2022-11-15T03:30:24.235Z,5.07
2022-11-15T03:33:45.140Z,5.10
2022-11-15T03:37:05.681Z,5.20
2022-11-15T03:40:26.506Z,5.13
2022-11-15T03:43:47.529Z,5.32
2022-11-15T03:47:08.890Z,4.82
2022-11-15T03:50:30.336Z,4.95
2022-11-15T03:53:51.213Z,4.88
2022-11-15T03:57:12.235Z,5.03
2022-11-15T04:00:33.437Z,4.72
2022-11-15T04:03:54.455Z,4.70
2022-11-15T04:07:16.544Z,5.10
2022-11-15T04:10:37.841Z,4.82
2022-11-15T04:13:58.989Z,4.97
2022-11-15T04:17:20.034Z,5.18
2022-11-15T04:20:41.131Z,5.15
2022-11-15T04:24:02.590Z,4.95
2022-11-15T04:27:23.592Z,4.70
2022-11-15T04:30:44.503Z,4.93
2022-11-15T04:34:05.459Z,5.18
2022-11-15T04:37:26.713Z,4.88
2022-11-15T04:40:47.948Z,4.72
2022-11-15T04:44:09.169Z,5.20
2022-11-15T04:47:30.040Z,4.50
2022-11-15T04:50:50.965Z,4.57
2022-11-15T04:54:11.845Z,4.68
2022-11-15T04:57:32.800Z,4.55
2022-11-15T05:00:53.902Z,4.70
2022-11-15T05:04:15.489Z,4.68
2022-11-15T05:07:36.740Z,4.70
2022-11-15T05:10:58.065Z,4.35
2022-11-15T05:14:19.015Z,5.03
2022-11-15T05:17:39.663Z,4.50
2022-11-15T05:21:00.670Z,4.40
2022-11-15T05:24:21.648Z,4.47
2022-11-15T05:27:42.556Z,4.10
2022-11-15T05:31:03.526Z,4.18
2022-11-15T05:34:24.568Z,3.97
2022-11-15T05:37:45.277Z,4.50
2022-11-15T05:41:06.344Z,3.90
2022-11-15T05:44:27.978Z,3.80
2022-11-15T05:47:49.154Z,4.07
2022-11-15T05:51:10.016Z,3.97
2022-11-15T05:54:30.943Z,3.70
2022-11-15T05:57:51.851Z,4.57
2022-11-15T06:01:13.230Z,3.90
2022-11-15T06:04:34.442Z,4.20
2022-11-15T06:07:55.345Z,4.10
2022-11-15T06:11:16.012Z,4.05
2022-11-15T06:14:36.853Z,4.30
2022-11-15T06:17:57.736Z,3.80
2022-11-15T06:21:18.573Z,3.85
2022-11-15T06:24:39.880Z,4.40
2022-11-15T06:28:01.246Z,3.80
2022-11-15T06:31:22.470Z,3.97
2022-11-15T06:34:43.755Z,4.30
2022-11-15T06:38:04.954Z,4.10
2022-11-15T06:41:25.892Z,4.32
2022-11-15T06:44:46.775Z,4.55
2022-11-15T06:48:07.745Z,4.22
2022-11-15T06:51:28.930Z,4.05
2022-11-15T06:54:50.125Z,4.07
2022-11-15T06:58:11.942Z,4.22
2022-11-15T07:01:34.126Z,4.05
2022-11-15T07:04:54.819Z,4.07
2022-11-15T07:08:15.506Z,4.53
2022-11-15T07:11:36.169Z,4.05
2022-11-15T07:14:57.062Z,4.32
2022-11-15T07:18:18.218Z,4.55
2022-11-15T07:21:39.077Z,4.25
2022-11-15T07:25:00.055Z,4.05
2022-11-15T07:28:21.070Z,3.92
2022-11-15T07:31:42.150Z,4.05
2022-11-15T07:35:02.795Z,4.18
2022-11-15T07:38:23.725Z,4.13
2022-11-15T07:41:44.492Z,4.00
2022-11-15T07:45:05.450Z,4.40
2022-11-15T07:48:35.673Z,4.35
2022-11-15T07:52:04.651Z,4.28
2022-11-15T07:55:25.854Z,4.00
2022-11-15T07:58:46.825Z,4.47
2022-11-15T08:02:07.674Z,4.22
2022-11-15T08:05:28.589Z,4.20
2022-11-15T08:08:49.470Z,4.20
2022-11-15T08:12:10.405Z,4.00
2022-11-15T08:15:31.647Z,4.00
2022-11-15T08:18:52.648Z,4.28
2022-11-15T08:22:13.806Z,4.40
2022-11-15T08:25:34.732Z,4.20
2022-11-15T08:28:55.147Z,3.67
2022-11-15T08:32:16.583Z,4.32
2022-11-15T08:35:37.635Z,4.20
2022-11-15T08:38:58.828Z,3.90
2022-11-15T08:42:20.339Z,4.13
2022-11-15T08:45:41.062Z,4.07
2022-11-15T08:49:01.652Z,4.10
2022-11-15T08:52:22.339Z,4.53
2022-11-15T08:55:43.780Z,4.40
2022-11-15T08:59:04.588Z,4.15
2022-11-15T09:02:25.460Z,4.13
2022-11-15T09:05:46.210Z,3.92
2022-11-15T09:09:07.269Z,4.05
2022-11-15T09:12:28.652Z,3.92
2022-11-15T09:15:49.455Z,4.18
2022-11-15T09:19:11.935Z,4.07
2022-11-15T09:22:33.147Z,3.95
2022-11-15T09:25:53.881Z,4.18
2022-11-15T09:29:14.639Z,4.22
2022-11-15T09:32:39.197Z,4.28
2022-11-15T09:35:59.847Z,3.95
2022-11-15T09:39:20.503Z,4.03
2022-11-15T09:42:41.415Z,3.95
2022-11-15T09:46:01.880Z,4.03
2022-11-15T09:49:22.706Z,4.25
2022-11-15T09:53:03.092Z,4.10
2022-11-15T09:56:05.382Z,3.90
2022-11-15T09:59:07.850Z,4.13
2022-11-15T10:02:10.275Z,4.10
2022-11-15T10:05:12.988Z,4.13
2022-11-15T10:08:15.519Z,3.40
2022-11-15T10:14:40.697Z,3.85
2022-11-15T10:17:43.349Z,3.90
2022-11-15T10:20:45.779Z,3.75
2022-11-15T10:24:20.717Z,3.58
2022-11-15T10:30:42.259Z,3.83
2022-11-15T10:33:47.407Z,3.88
2022-11-15T10:36:51.396Z,4.07
2022-11-15T10:40:07.042Z,3.90
2022-11-15T10:43:25.308Z,3.63
2022-11-15T10:50:40.043Z,3.35
2022-11-15T10:56:51.853Z,3.40
2022-11-15T11:01:16.711Z,3.53
2022-11-15T11:04:25.850Z,3.38
2022-11-15T11:11:08.818Z,3.15
2022-11-15T11:14:16.410Z,3.03
2022-11-15T11:21:39.792Z,3.10
2022-11-15T11:24:35.470Z,2.80
2022-11-15T11:27:39.143Z,2.80
2022-11-15T11:30:41.930Z,2.95
2022-11-15T11:33:45.145Z,3.10
2022-11-15T11:36:48.301Z,2.80
2022-11-15T11:39:51.120Z,2.80
2022-11-15T11:42:53.738Z,2.75
2022-11-15T11:45:56.391Z,2.92
2022-11-15T11:48:59.198Z,2.65
2022-11-15T11:52:01.763Z,2.53
2022-11-15T11:55:03.931Z,2.60
2022-11-15T11:58:06.790Z,2.60
2022-11-15T12:01:12.959Z,2.47
2022-11-15T12:04:15.253Z,2.60
2022-11-15T12:07:18.008Z,2.60
2022-11-15T12:10:20.548Z,2.13
2022-11-15T12:13:23.572Z,2.40
2022-11-15T12:16:26.735Z,2.15
2022-11-15T12:19:29.152Z,2.40
2022-11-15T12:22:31.737Z,2.25
2022-11-15T12:25:34.316Z,2.20
2022-11-15T12:28:37.381Z,2.00
2022-11-15T12:31:40.321Z,2.13
2022-11-15T12:34:42.824Z,2.10
2022-11-15T12:37:45.545Z,2.22
2022-11-15T12:40:49.368Z,2.00
2022-11-15T12:43:53.196Z,1.83
2022-11-15T12:46:56.146Z,2.00
2022-11-15T12:49:58.661Z,1.90
2022-11-15T12:53:01.766Z,1.98
2022-11-15T12:56:04.516Z,2.10
2022-11-15T12:59:06.927Z,1.75
2022-11-15T13:02:09.515Z,1.67
2022-11-15T13:05:12.270Z,1.70
2022-11-15T13:08:14.943Z,1.90
2022-11-15T13:11:17.730Z,1.60
2022-11-15T13:14:20.553Z,1.60
2022-11-15T13:17:23.360Z,1.45
2022-11-15T13:20:25.752Z,1.40
2022-11-15T13:23:28.735Z,1.92
2022-11-15T13:26:31.780Z,1.60
2022-11-15T13:29:34.511Z,1.55
2022-11-15T13:32:36.889Z,1.48
2022-11-15T13:35:39.368Z,1.50
2022-11-15T13:38:42.312Z,1.30
2022-11-15T13:41:44.886Z,1.70
2022-11-15T13:44:47.775Z,1.10
2022-11-15T13:47:50.498Z,1.58
2022-11-15T13:50:53.169Z,1.40
2022-11-15T13:53:55.405Z,1.35
2022-11-15T13:56:57.354Z,1.48
2022-11-15T14:00:00.362Z,1.40
2022-11-15T14:03:02.716Z,1.35
2022-11-15T14:06:05.581Z,1.40
2022-11-15T14:09:08.737Z,1.27
2022-11-15T14:12:11.640Z,1.30
2022-11-15T14:15:14.621Z,1.27
2022-11-15T14:18:17.475Z,1.27
2022-11-15T14:21:20.337Z,1.27
2022-11-15T14:24:23.490Z,1.30
2022-11-15T14:27:26.226Z,1.35
2022-11-15T14:30:29.094Z,1.33
2022-11-15T14:33:31.594Z,1.10
2022-11-15T14:36:34.934Z,1.40
2022-11-15T14:39:38.022Z,1.00
2022-11-15T14:42:41.350Z,1.20
2022-11-15T14:45:44.174Z,1.25
2022-11-15T14:48:46.884Z,1.17
2022-11-15T14:51:50.058Z,1.17
2022-11-15T14:54:52.468Z,1.08
2022-11-15T14:57:55.015Z,1.10
2022-11-15T15:00:58.012Z,1.10
2022-11-15T15:04:01.072Z,1.17
2022-11-15T15:07:04.490Z,1.02
2022-11-15T15:13:29.387Z,1.00
2022-11-15T15:16:31.662Z,1.00
2022-11-15T15:19:34.980Z,1.10
2022-11-15T15:22:37.829Z,1.02
2022-11-15T15:25:41.029Z,0.90
2022-11-15T15:28:43.409Z,1.08
2022-11-15T15:31:46.009Z,1.10
2022-11-15T15:34:48.481Z,1.20
2022-11-15T15:37:50.742Z,1.00
2022-11-15T15:40:53.454Z,1.00
2022-11-15T15:43:56.188Z,1.17
2022-11-15T15:46:58.277Z,1.00
2022-11-15T15:50:01.310Z,1.00
2022-11-15T15:53:03.787Z,1.00
2022-11-15T15:56:06.426Z,1.15
2022-11-15T15:59:10.380Z,0.95
2022-11-15T16:02:12.836Z,1.17
2022-11-15T16:05:15.655Z,1.00
2022-11-15T16:08:18.060Z,1.10
2022-11-15T16:11:20.938Z,0.80
2022-11-15T16:14:23.663Z,1.00
2022-11-15T16:17:28.978Z,0.90
2022-11-15T16:20:35.491Z,0.90
2022-11-15T16:23:38.258Z,1.00
2022-11-15T16:26:40.881Z,1.10
2022-11-15T16:29:43.722Z,0.90
2022-11-15T16:32:45.877Z,1.10
2022-11-15T16:35:48.418Z,1.00
2022-11-15T16:38:51.413Z,0.90
2022-11-15T16:41:54.280Z,0.95
2022-11-15T16:44:57.135Z,0.93
2022-11-15T16:47:59.263Z,0.90
2022-11-15T16:51:01.862Z,1.00
2022-11-15T16:54:04.817Z,0.95
2022-11-15T16:57:07.684Z,1.00
2022-11-15T17:00:10.611Z,1.00
2022-11-15T17:03:13.795Z,0.90
2022-11-15T17:06:17.073Z,0.90
2022-11-15T17:09:20.370Z,1.00
2022-11-15T17:12:23.229Z,0.95
2022-11-15T17:15:25.771Z,0.93
2022-11-15T17:18:28.267Z,0.80
2022-11-15T17:21:33.613Z,0.90
2022-11-15T17:24:36.594Z,1.00
2022-11-15T17:27:39.489Z,1.00
2022-11-15T17:30:42.667Z,1.10
2022-11-15T17:33:45.518Z,1.00
2022-11-15T17:36:48.487Z,1.00
2022-11-15T17:39:51.203Z,0.88
2022-11-15T17:42:53.996Z,0.80
2022-11-15T17:45:56.127Z,0.82
2022-11-15T17:48:59.076Z,1.20
2022-11-15T17:52:02.995Z,0.90
2022-11-15T17:55:05.947Z,0.90
2022-11-15T17:58:08.353Z,1.10
2022-11-15T18:01:10.732Z,0.80
2022-11-15T18:04:12.979Z,0.90
2022-11-15T18:07:15.129Z,1.08
2022-11-15T18:10:17.839Z,1.00
2022-11-15T18:13:20.021Z,1.00
2022-11-15T18:16:22.998Z,1.10
2022-11-15T18:19:25.847Z,1.00
2022-11-15T18:22:28.938Z,0.90
2022-11-15T18:25:31.693Z,1.05
2022-11-15T18:28:35.283Z,1.00
2022-11-15T18:31:39.666Z,1.00
2022-11-15T18:34:43.999Z,1.08
2022-11-15T18:37:46.803Z,1.08
2022-11-15T18:40:49.934Z,1.17
2022-11-15T18:43:52.084Z,1.13
2022-11-15T18:46:54.640Z,0.90
2022-11-15T18:49:57.090Z,1.02
2022-11-15T18:52:59.943Z,1.13
2022-11-15T18:56:02.511Z,1.00
2022-11-15T18:59:05.576Z,0.90
2022-11-15T19:02:08.769Z,0.95
2022-11-15T19:05:11.755Z,0.93
2022-11-15T19:08:14.163Z,1.00
2022-11-15T19:11:17.494Z,1.13
2022-11-15T19:14:20.331Z,1.10
2022-11-15T19:17:23.305Z,1.15
2022-11-15T19:20:26.448Z,1.20
2022-11-15T19:23:29.397Z,1.17
2022-11-15T19:26:31.644Z,1.10
2022-11-15T19:29:34.412Z,1.10
2022-11-15T19:32:37.579Z,1.13
2022-11-15T19:35:40.409Z,1.30
2022-11-15T19:38:42.936Z,1.20
2022-11-15T19:41:45.188Z,1.23
2022-11-15T19:44:47.785Z,1.00
2022-11-15T19:47:50.384Z,1.27
2022-11-15T19:50:53.261Z,1.02
2022-11-15T19:53:56.391Z,1.20
2022-11-15T19:56:59.242Z,1.38
2022-11-15T20:00:06.856Z,1.20
2022-11-15T20:03:09.610Z,1.20
2022-11-15T20:06:12.032Z,1.13
2022-11-15T20:09:14.585Z,1.45
2022-11-15T20:12:17.574Z,1.15
2022-11-15T20:15:20.424Z,1.10
2022-11-15T20:18:23.001Z,1.20
2022-11-15T20:21:25.698Z,1.17
2022-11-15T20:24:28.272Z,1.15
2022-11-15T20:27:30.434Z,1.02
2022-11-15T20:30:32.992Z,1.13
2022-11-15T20:33:35.165Z,1.30
2022-11-15T20:36:38.054Z,1.33
2022-11-15T20:39:41.188Z,1.25
2022-11-15T20:42:43.917Z,1.48
2022-11-15T20:45:46.287Z,1.10
2022-11-15T20:48:48.908Z,1.45
2022-11-15T20:51:51.485Z,1.30
2022-11-15T20:54:53.629Z,1.50
2022-11-15T20:57:56.632Z,1.27
2022-11-15T21:01:00.595Z,1.48
2022-11-15T21:04:03.471Z,1.48
2022-11-15T21:07:06.449Z,1.30
2022-11-15T21:10:09.350Z,1.40
2022-11-15T21:13:12.222Z,1.45
2022-11-15T21:16:14.699Z,1.40
2022-11-15T21:19:17.539Z,1.30
2022-11-15T21:22:20.455Z,1.55
2022-11-15T21:25:23.109Z,1.50
2022-11-15T21:28:25.548Z,1.42
2022-11-15T21:31:27.723Z,1.30
2022-11-15T21:34:30.360Z,1.30
2022-11-15T21:37:32.522Z,1.70
2022-11-15T21:40:35.403Z,1.52
2022-11-15T21:43:38.111Z,1.60
2022-11-15T21:46:40.483Z,1.70
2022-11-15T21:49:42.627Z,1.60
2022-11-15T21:52:45.110Z,1.52
2022-11-15T21:55:47.546Z,1.58
2022-11-15T21:58:49.960Z,1.60
2022-11-15T22:01:52.837Z,1.65
2022-11-15T22:04:55.281Z,1.60
2022-11-15T22:07:57.684Z,1.60
2022-11-15T22:11:00.159Z,1.70
2022-11-15T22:14:02.941Z,1.60
2022-11-15T22:17:05.560Z,1.52
2022-11-15T22:20:29.974Z,1.52
2022-11-15T22:23:30.689Z,1.48
2022-11-15T22:26:33.831Z,1.75
2022-11-15T22:29:36.928Z,1.52
2022-11-15T22:32:39.787Z,1.58
2022-11-15T22:35:41.943Z,1.75
2022-11-15T22:38:44.043Z,1.70
2022-11-15T22:41:46.736Z,1.77
2022-11-15T22:44:49.598Z,1.80
2022-11-15T22:47:52.490Z,1.42
2022-11-15T22:50:55.220Z,1.63
2022-11-15T22:53:57.750Z,1.70
2022-11-15T22:57:00.333Z,1.55
2022-11-15T23:00:03.236Z,1.88
2022-11-15T23:03:05.698Z,2.00
2022-11-15T23:06:07.910Z,1.98
2022-11-15T23:09:10.122Z,1.80
2022-11-15T23:12:13.030Z,2.00
2022-11-15T23:15:15.155Z,1.90
2022-11-15T23:18:17.784Z,1.98
2022-11-15T23:21:20.683Z,1.60
2022-11-15T23:24:23.541Z,1.83
2022-11-15T23:27:26.460Z,1.83
2022-11-15T23:30:28.870Z,2.00
2022-11-15T23:33:31.251Z,1.75
2022-11-15T23:36:33.705Z,1.92
2022-11-15T23:39:36.701Z,1.90
2022-11-15T23:42:39.696Z,1.98
2022-11-15T23:45:42.978Z,1.67
2022-11-15T23:48:45.856Z,2.10
2022-11-15T23:51:48.643Z,1.83
2022-11-15T23:54:50.772Z,2.25
2022-11-15T23:57:52.946Z,2.00
